createdAt,value
2022-10-01T00:02:06.005Z,4.45
2022-10-01T00:04:32.396Z,4.10
2022-10-01T00:07:03.162Z,4.70
2022-10-01T00:09:29.494Z,3.83
2022-10-01T00:11:56.555Z,4.10
2022-10-01T00:14:23.007Z,4.60
2022-10-01T00:16:49.466Z,4.85
2022-10-01T00:19:15.933Z,4.40
2022-10-01T00:21:42.510Z,4.90
2022-10-01T00:24:12.240Z,4.65
2022-10-01T00:26:38.913Z,4.85
2022-10-01T00:29:09.877Z,4.88
2022-10-01T00:31:36.712Z,4.88
2022-10-01T00:34:03.817Z,5.17
2022-10-01T00:36:31.717Z,4.70
2022-10-01T00:39:01.995Z,4.97
2022-10-01T00:41:31.063Z,5.00
2022-10-01T00:44:01.237Z,4.88
2022-10-01T00:46:40.839Z,4.37
2022-10-01T00:49:10.923Z,4.82
2022-10-01T00:51:45.520Z,4.93
2022-10-01T00:54:17.057Z,5.18
2022-10-01T00:56:44.705Z,4.88
2022-10-01T00:59:12.076Z,5.40
2022-10-01T01:01:39.277Z,4.85
2022-10-01T01:04:16.238Z,4.50
2022-10-01T01:06:53.707Z,3.33
2022-10-01T01:09:21.155Z,4.50
2022-10-01T01:11:58.828Z,4.70
2022-10-01T01:14:36.533Z,4.22
2022-10-01T01:17:10.880Z,3.80
2022-10-01T01:20:05.614Z,3.67
2022-10-01T01:22:37.004Z,3.67
2022-10-01T01:25:14.059Z,3.80
2022-10-01T01:28:14.722Z,3.55
2022-10-01T01:30:41.505Z,3.45
2022-10-01T01:33:15.773Z,3.00
2022-10-01T01:35:49.254Z,3.60
2022-10-01T01:38:21.793Z,3.63
2022-10-01T01:40:51.467Z,2.85
2022-10-01T01:43:23.230Z,3.20
2022-10-01T01:45:52.478Z,3.25
2022-10-01T01:48:18.853Z,3.15
2022-10-01T01:50:56.940Z,3.07
2022-10-01T01:53:24.037Z,3.55
2022-10-01T01:55:50.706Z,3.17
2022-10-01T01:58:18.683Z,2.63
2022-10-01T02:00:47.705Z,2.45
2022-10-01T02:03:14.006Z,2.53
2022-10-01T02:06:08.841Z,2.10
2022-10-01T02:09:03.765Z,1.85
2022-10-01T02:11:38.032Z,2.10
2022-10-01T02:14:58.471Z,1.90
2022-10-01T02:17:46.431Z,2.20
2022-10-01T02:20:28.044Z,2.13
2022-10-01T02:23:03.520Z,2.00
2022-10-01T02:25:35.856Z,2.00
2022-10-01T02:28:08.476Z,2.08
2022-10-01T02:30:35.953Z,1.70
2022-10-01T02:33:05.324Z,2.17
2022-10-01T02:35:34.989Z,1.75
2022-10-01T02:38:05.779Z,1.75
2022-10-01T02:40:36.426Z,1.58
2022-10-01T02:43:11.124Z,1.40
2022-10-01T02:45:40.786Z,1.30
2022-10-01T02:48:11.211Z,0.95
2022-10-01T02:50:48.113Z,1.27
2022-10-01T02:53:25.901Z,1.00
2022-10-01T02:55:53.926Z,0.90
2022-10-01T02:58:21.548Z,0.90
2022-10-01T03:00:47.908Z,0.80
2022-10-01T03:03:14.232Z,0.98
2022-10-01T03:05:40.743Z,0.90
2022-10-01T03:08:07.156Z,1.20
2022-10-01T03:10:34.721Z,1.10
2022-10-01T03:13:01.786Z,1.20
2022-10-01T03:15:28.355Z,1.35
2022-10-01T03:17:55.406Z,1.27
2022-10-01T03:20:22.215Z,1.17
2022-10-01T03:22:48.685Z,0.93
2022-10-01T03:25:15.879Z,0.90
2022-10-01T03:27:42.967Z,1.30
2022-10-01T03:30:10.272Z,1.30
2022-10-01T03:32:36.649Z,1.20
2022-10-01T03:35:03.075Z,1.10
2022-10-01T03:37:29.377Z,1.30
2022-10-01T03:39:55.727Z,1.20
2022-10-01T03:42:22.062Z,1.25
2022-10-01T03:44:48.464Z,1.00
2022-10-01T03:47:14.783Z,1.70
2022-10-01T03:49:41.104Z,1.70
2022-10-01T03:52:07.452Z,1.60
2022-10-01T03:54:33.837Z,1.70
2022-10-01T03:57:00.234Z,1.63
2022-10-01T03:59:29.707Z,1.75
2022-10-01T04:01:56.122Z,1.80
2022-10-01T04:04:22.533Z,1.83
2022-10-01T04:06:48.869Z,1.95
2022-10-01T04:09:15.215Z,2.10
2022-10-01T04:11:41.550Z,2.03
2022-10-01T04:14:08.618Z,1.98
2022-10-01T04:16:36.062Z,2.00
2022-10-01T04:19:04.055Z,2.10
2022-10-01T04:21:30.391Z,2.30
2022-10-01T04:23:56.807Z,2.50
2022-10-01T04:26:23.138Z,2.38
2022-10-01T04:28:49.508Z,2.40
2022-10-01T04:31:25.250Z,2.88
2022-10-01T04:33:56.717Z,2.87
2022-10-01T04:36:24.361Z,3.05
2022-10-01T04:38:52.307Z,3.05
2022-10-01T04:41:19.210Z,3.05
2022-10-01T04:43:45.681Z,3.17
2022-10-01T04:46:12.256Z,2.97
2022-10-01T04:48:38.565Z,3.90
2022-10-01T04:51:04.960Z,3.38
2022-10-01T04:53:31.352Z,3.42
2022-10-01T04:55:57.746Z,3.58
2022-10-01T04:58:24.247Z,3.33
2022-10-01T05:00:50.798Z,3.50
2022-10-01T05:03:17.609Z,3.53
2022-10-01T05:05:44.404Z,3.80
2022-10-01T05:08:10.739Z,3.90
2022-10-01T05:10:37.169Z,3.50
2022-10-01T05:13:03.539Z,4.07
2022-10-01T05:15:30.460Z,4.13
2022-10-01T05:17:57.040Z,4.45
2022-10-01T05:20:25.946Z,4.20
2022-10-01T05:22:53.247Z,4.20
2022-10-01T05:25:20.618Z,3.92
2022-10-01T05:27:47.556Z,4.18
2022-10-01T05:30:18.554Z,3.97
2022-10-01T05:32:57.705Z,3.88
2022-10-01T05:35:24.532Z,4.10
2022-10-01T05:37:55.122Z,4.00
2022-10-01T05:40:21.662Z,4.20
2022-10-01T05:42:48.071Z,4.20
2022-10-01T05:45:14.544Z,4.10
2022-10-01T05:47:42.288Z,4.53
2022-10-01T05:50:09.331Z,4.15
2022-10-01T05:52:35.676Z,4.80
2022-10-01T05:55:01.982Z,4.75
2022-10-01T05:57:28.302Z,4.40
2022-10-01T05:59:54.595Z,4.80
2022-10-01T06:02:21.087Z,4.65
2022-10-01T06:04:47.541Z,5.03
2022-10-01T06:07:13.911Z,4.97
2022-10-01T06:09:40.233Z,4.45
2022-10-01T06:12:09.712Z,4.03
2022-10-01T06:14:36.021Z,4.53
2022-10-01T06:17:02.324Z,4.60
2022-10-01T06:19:28.619Z,4.65
2022-10-01T06:21:54.915Z,4.80
2022-10-01T06:24:21.344Z,4.63
2022-10-01T06:26:49.015Z,4.45
2022-10-01T06:29:15.410Z,4.32
2022-10-01T06:31:41.745Z,5.20
2022-10-01T06:34:08.096Z,4.57
2022-10-01T06:36:34.402Z,4.20
2022-10-01T06:39:00.746Z,4.85
2022-10-01T06:41:27.116Z,5.07
2022-10-01T06:43:53.499Z,4.53
2022-10-01T06:46:19.859Z,4.97
2022-10-01T06:48:46.211Z,4.43
2022-10-01T06:51:12.520Z,4.80
2022-10-01T06:53:38.855Z,4.93
2022-10-01T06:56:07.233Z,4.75
2022-10-01T06:58:34.528Z,4.82
2022-10-01T07:01:03.013Z,4.53
2022-10-01T07:03:31.015Z,4.15
2022-10-01T07:06:05.084Z,4.43
2022-10-01T07:08:33.034Z,5.30
2022-10-01T07:11:02.368Z,4.40
2022-10-01T07:13:28.683Z,5.10
2022-10-01T07:15:55.028Z,4.68
2022-10-01T07:18:21.363Z,4.40
2022-10-01T07:20:47.775Z,4.07
2022-10-01T07:23:15.364Z,4.60
2022-10-01T07:25:42.975Z,4.80
2022-10-01T07:28:17.797Z,5.15
2022-10-01T07:30:59.238Z,4.10
2022-10-01T07:33:25.575Z,4.00
2022-10-01T07:35:51.967Z,3.80
2022-10-01T07:38:18.297Z,3.23
2022-10-01T07:40:44.686Z,3.25
2022-10-01T07:43:11.080Z,3.90
2022-10-01T07:45:37.445Z,3.55
2022-10-01T07:48:04.262Z,3.88
2022-10-01T07:50:30.727Z,3.30
2022-10-01T07:52:58.365Z,3.35
2022-10-01T07:55:26.885Z,3.03
2022-10-01T07:57:55.319Z,3.28
2022-10-01T08:00:23.673Z,2.83
2022-10-01T08:02:51.624Z,2.70
2022-10-01T08:05:20.340Z,3.00
2022-10-01T08:07:48.116Z,2.53
2022-10-01T08:10:17.503Z,3.28
2022-10-01T08:12:44.900Z,3.00
2022-10-01T08:15:13.918Z,2.47
2022-10-01T08:17:40.395Z,2.50
2022-10-01T08:20:08.378Z,2.38
2022-10-01T08:22:39.808Z,2.58
2022-10-01T08:25:08.461Z,3.05
2022-10-01T08:27:35.097Z,2.80
2022-10-01T08:30:01.410Z,2.47
2022-10-01T08:32:28.152Z,2.53
2022-10-01T08:34:57.591Z,2.20
2022-10-01T08:37:27.024Z,2.00
2022-10-01T08:39:54.613Z,2.20
2022-10-01T08:42:52.095Z,2.13
2022-10-01T08:45:34.726Z,2.55
2022-10-01T08:48:13.271Z,1.85
2022-10-01T08:50:57.485Z,1.63
2022-10-01T08:53:47.353Z,1.93
2022-10-01T08:56:35.439Z,1.38
2022-10-01T08:59:17.024Z,1.38
2022-10-01T09:01:43.406Z,1.30
2022-10-01T09:04:10.865Z,1.48
2022-10-01T09:06:38.436Z,1.53
2022-10-01T09:09:31.042Z,1.38
2022-10-01T09:12:28.064Z,1.10
2022-10-01T09:15:17.964Z,0.90
2022-10-01T09:17:55.632Z,1.20
2022-10-01T09:20:39.008Z,1.60
2022-10-01T09:23:26.053Z,1.30
2022-10-01T09:25:52.451Z,1.30
2022-10-01T09:28:32.202Z,1.20
2022-10-01T09:31:25.722Z,1.13
2022-10-01T09:34:01.462Z,1.10
2022-10-01T09:36:45.544Z,1.17
2022-10-01T09:39:20.005Z,0.95
2022-10-01T09:41:46.725Z,1.13
2022-10-01T09:44:21.978Z,0.90
2022-10-01T09:46:48.385Z,1.20
2022-10-01T09:49:31.708Z,0.90
2022-10-01T09:52:03.908Z,0.90
2022-10-01T09:54:55.013Z,0.75
2022-10-01T09:57:44.574Z,0.90
2022-10-01T10:00:18.194Z,1.10
2022-10-01T10:02:49.185Z,0.80
2022-10-01T10:05:23.481Z,0.95
2022-10-01T10:07:53.422Z,1.42
2022-10-01T10:10:26.069Z,1.05
2022-10-01T10:12:59.132Z,0.90
2022-10-01T10:15:26.296Z,0.70
2022-10-01T10:17:55.554Z,0.80
2022-10-01T10:20:40.263Z,0.95
2022-10-01T10:23:26.711Z,1.15
2022-10-01T10:26:04.725Z,0.83
2022-10-01T10:28:44.609Z,0.90
2022-10-01T10:31:18.855Z,0.82
2022-10-01T10:34:13.470Z,1.02
2022-10-01T10:36:41.729Z,0.93
2022-10-01T10:39:20.164Z,0.83
2022-10-01T10:41:48.540Z,0.90
2022-10-01T10:44:19.478Z,1.00
2022-10-01T10:46:46.425Z,0.80
2022-10-01T10:49:29.510Z,0.95
2022-10-01T10:51:58.634Z,0.87
2022-10-01T10:54:24.900Z,0.85
2022-10-01T10:57:02.099Z,1.23
2022-10-01T10:59:31.848Z,0.85
2022-10-01T11:02:04.640Z,0.57
2022-10-01T11:04:39.739Z,1.00
2022-10-01T11:07:06.255Z,0.80
2022-10-01T11:09:37.394Z,0.70
2022-10-01T11:12:12.795Z,0.77
2022-10-01T11:15:23.368Z,1.40
2022-10-01T11:18:10.518Z,0.87
2022-10-01T11:20:55.111Z,1.00
2022-10-01T11:23:49.692Z,0.85
2022-10-01T11:26:30.894Z,0.73
2022-10-01T11:29:31.657Z,2.00
2022-10-01T11:32:16.679Z,0.80
2022-10-01T11:35:21.967Z,1.50
2022-10-01T11:38:11.694Z,0.90
2022-10-01T11:40:49.798Z,0.80
2022-10-01T11:43:23.369Z,0.70
2022-10-01T11:45:56.320Z,0.83
2022-10-01T11:48:31.466Z,1.00
2022-10-01T11:51:05.427Z,1.00
2022-10-01T11:53:38.490Z,0.65
2022-10-01T11:56:39.044Z,0.70
2022-10-01T11:59:13.815Z,1.00
2022-10-01T12:01:49.503Z,0.95
2022-10-01T12:04:32.132Z,0.70
2022-10-01T12:07:09.641Z,0.90
2022-10-01T12:09:57.743Z,0.90
2022-10-01T12:12:27.794Z,0.80
2022-10-01T12:15:23.356Z,0.70
2022-10-01T12:18:04.068Z,0.73
2022-10-01T12:20:37.843Z,0.80
2022-10-01T12:23:10.348Z,0.60
2022-10-01T12:25:46.723Z,0.87
2022-10-01T12:28:20.105Z,0.80
2022-10-01T12:31:05.422Z,0.73
2022-10-01T12:34:02.943Z,0.93
2022-10-01T12:36:53.420Z,0.90
2022-10-01T12:39:35.100Z,0.67
2022-10-01T12:42:04.228Z,0.70
2022-10-01T12:44:57.174Z,1.10
2022-10-01T12:47:35.093Z,0.80
2022-10-01T12:50:23.220Z,0.80
2022-10-01T12:53:08.989Z,0.77
2022-10-01T12:55:48.946Z,1.10
2022-10-01T12:58:41.909Z,1.02
2022-10-01T13:01:15.086Z,0.80
2022-10-01T13:03:41.391Z,1.05
2022-10-01T13:06:46.614Z,0.73
2022-10-01T13:09:48.915Z,2.30
2022-10-01T13:12:36.778Z,0.65
2022-10-01T13:15:05.687Z,0.80
2022-10-01T13:17:59.694Z,0.70
2022-10-01T13:20:46.067Z,1.07
2022-10-01T13:23:21.792Z,1.20
2022-10-01T13:26:09.454Z,0.70
2022-10-01T13:28:38.777Z,0.75
2022-10-01T13:31:15.936Z,1.20
2022-10-01T13:33:54.608Z,1.00
2022-10-01T13:36:32.683Z,0.80
2022-10-01T13:38:59.499Z,0.90
2022-10-01T13:41:34.772Z,0.98
2022-10-01T13:44:23.214Z,0.70
2022-10-01T13:46:53.451Z,0.70
2022-10-01T13:49:28.515Z,0.75
2022-10-01T13:51:55.893Z,1.50
2022-10-01T13:54:36.238Z,1.00
2022-10-01T13:57:26.325Z,1.00
2022-10-01T13:59:59.880Z,0.60
2022-10-01T14:02:37.130Z,0.70
2022-10-01T14:05:29.809Z,1.00
2022-10-01T14:08:11.685Z,0.75
2022-10-01T14:11:04.496Z,0.77
2022-10-01T14:13:53.247Z,0.80
2022-10-01T14:16:20.224Z,0.80
2022-10-01T14:18:49.234Z,1.00
2022-10-01T14:21:35.003Z,1.00
2022-10-01T14:24:33.647Z,0.77
2022-10-01T14:27:26.382Z,0.57
2022-10-01T14:30:07.285Z,0.63
2022-10-01T14:33:05.107Z,0.63
2022-10-01T14:35:35.178Z,0.68
2022-10-01T14:38:04.873Z,1.00
2022-10-01T14:40:43.071Z,0.90
2022-10-01T14:43:17.574Z,0.90
2022-10-01T14:45:57.436Z,0.70
2022-10-01T14:48:25.715Z,0.80
2022-10-01T14:50:56.156Z,1.00
2022-10-01T14:53:27.248Z,0.90
2022-10-01T14:55:56.722Z,0.77
2022-10-01T14:58:26.271Z,1.35
2022-10-01T15:00:54.975Z,0.70
2022-10-01T15:03:21.407Z,0.70
2022-10-01T15:05:51.896Z,1.07
2022-10-01T15:08:33.849Z,1.27
2022-10-01T15:11:03.827Z,0.55
2022-10-01T15:13:35.259Z,0.88
2022-10-01T15:16:02.703Z,0.90
2022-10-01T15:18:30.467Z,0.80
2022-10-01T15:21:02.541Z,1.10
2022-10-01T15:23:30.471Z,1.10
2022-10-01T15:26:00.126Z,0.90
2022-10-01T15:28:31.945Z,0.90
2022-10-01T15:31:00.881Z,0.83
2022-10-01T15:33:29.820Z,0.88
2022-10-01T15:35:58.395Z,0.90
2022-10-01T15:38:25.197Z,1.02
2022-10-01T15:41:13.996Z,1.00
2022-10-01T15:43:45.186Z,1.67
2022-10-01T15:46:18.495Z,1.00
2022-10-01T15:48:46.013Z,0.77
2022-10-01T15:51:19.269Z,0.93
2022-10-01T15:53:46.077Z,0.70
2022-10-01T15:56:16.966Z,0.70
2022-10-01T15:58:48.873Z,0.63
2022-10-01T16:01:22.655Z,1.00
2022-10-01T16:03:56.781Z,0.65
2022-10-01T16:06:29.010Z,0.80
2022-10-01T16:09:05.791Z,1.00
2022-10-01T16:11:58.238Z,0.57
2022-10-01T16:14:40.526Z,0.80
2022-10-01T16:17:18.884Z,0.82
2022-10-01T16:20:09.408Z,0.73
2022-10-01T16:22:37.477Z,0.80
2022-10-01T16:25:26.734Z,0.85
2022-10-01T16:28:20.219Z,0.80
2022-10-01T16:30:50.477Z,0.90
2022-10-01T16:33:16.887Z,0.85
2022-10-01T16:35:45.456Z,1.13
2022-10-01T16:38:12.049Z,0.77
2022-10-01T16:40:48.977Z,0.95
2022-10-01T16:43:20.676Z,0.80
2022-10-01T16:45:47.046Z,0.80
2022-10-01T16:48:15.707Z,0.73
2022-10-01T16:50:44.036Z,0.65
2022-10-01T16:53:12.666Z,0.70
2022-10-01T16:55:39.224Z,0.65
2022-10-01T16:58:06.124Z,0.90
2022-10-01T17:00:32.895Z,0.90
2022-10-01T17:02:59.793Z,0.63
2022-10-01T17:05:29.255Z,0.57
2022-10-01T17:08:01.001Z,0.70
2022-10-01T17:10:35.659Z,0.85
2022-10-01T17:13:03.488Z,0.60
2022-10-01T17:15:30.311Z,0.70
2022-10-01T17:17:58.224Z,0.80
2022-10-01T17:20:28.349Z,0.60
2022-10-01T17:22:55.493Z,0.75
2022-10-01T17:25:31.891Z,1.00
2022-10-01T17:27:59.569Z,1.50
2022-10-01T17:30:28.989Z,0.50
2022-10-01T17:32:56.031Z,1.27
2022-10-01T17:35:22.743Z,0.60
2022-10-01T17:37:49.107Z,0.80
2022-10-01T17:40:15.710Z,0.60
2022-10-01T17:42:42.043Z,0.60
2022-10-01T17:45:10.414Z,1.02
2022-10-01T17:47:36.734Z,0.80
2022-10-01T17:50:03.945Z,0.70
2022-10-01T17:52:32.071Z,1.00
2022-10-01T17:54:58.684Z,0.60
2022-10-01T17:57:25.193Z,0.90
2022-10-01T17:59:51.750Z,0.68
2022-10-01T18:02:40.528Z,0.80
2022-10-01T18:05:08.478Z,1.05
2022-10-01T18:07:39.022Z,0.82
2022-10-01T18:10:06.545Z,0.80
2022-10-01T18:12:33.711Z,1.02
2022-10-01T18:15:00.928Z,0.97
2022-10-01T18:17:27.422Z,0.88
2022-10-01T18:19:54.377Z,0.75
2022-10-01T18:22:21.343Z,0.90
2022-10-01T18:24:47.671Z,1.48
2022-10-01T18:27:14.079Z,0.63
2022-10-01T18:29:40.455Z,1.20
2022-10-01T18:32:11.295Z,1.00
2022-10-01T18:34:58.832Z,1.20
2022-10-01T18:37:52.282Z,1.13
2022-10-01T18:40:22.991Z,1.10
2022-10-01T18:43:15.432Z,1.13
2022-10-01T18:46:06.772Z,1.10
2022-10-01T18:48:51.212Z,0.82
2022-10-01T18:51:32.330Z,1.10
2022-10-01T18:54:33.490Z,1.20
2022-10-01T18:57:31.035Z,0.95
2022-10-01T19:00:08.839Z,1.17
2022-10-01T19:03:02.377Z,1.10
2022-10-01T19:05:56.396Z,1.45
2022-10-01T19:08:57.056Z,1.10
2022-10-01T19:12:08.097Z,1.83
2022-10-01T19:14:55.821Z,1.23
2022-10-01T19:17:47.167Z,1.23
2022-10-01T19:20:46.203Z,1.20
2022-10-01T19:23:41.015Z,1.07
2022-10-01T19:26:31.436Z,1.30
2022-10-01T19:29:22.272Z,2.53
2022-10-01T19:32:00.235Z,1.20
2022-10-01T19:34:45.429Z,1.35
2022-10-01T19:37:38.759Z,1.40
2022-10-01T19:40:16.703Z,0.90
2022-10-01T19:42:50.452Z,1.48
2022-10-01T19:45:21.264Z,1.13
2022-10-01T19:48:02.204Z,0.98
2022-10-01T19:50:37.022Z,1.20
2022-10-01T19:53:04.267Z,1.20
2022-10-01T19:55:38.779Z,1.05
2022-10-01T19:58:18.018Z,1.20
2022-10-01T20:00:48.059Z,1.38
2022-10-01T20:03:24.380Z,1.00
2022-10-01T20:05:58.596Z,1.38
2022-10-01T20:08:34.057Z,1.25
2022-10-01T20:11:10.181Z,1.33
2022-10-01T20:13:42.472Z,0.88
2022-10-01T20:16:35.954Z,1.03
2022-10-01T20:19:23.639Z,1.20
2022-10-01T20:22:12.858Z,1.63
2022-10-01T20:25:00.294Z,0.85
2022-10-01T20:27:59.007Z,1.60
2022-10-01T20:30:30.191Z,1.10
2022-10-01T20:33:17.063Z,1.30
2022-10-01T20:35:57.814Z,0.80
2022-10-01T20:38:29.367Z,1.05
2022-10-01T20:40:58.248Z,1.13
2022-10-01T20:43:38.494Z,0.93
2022-10-01T20:46:12.899Z,0.85
2022-10-01T20:48:43.322Z,1.45
2022-10-01T20:51:22.514Z,1.00
2022-10-01T20:53:54.030Z,1.73
2022-10-01T20:56:30.795Z,1.53
2022-10-01T20:59:24.292Z,1.80
2022-10-01T21:02:02.325Z,1.77
2022-10-01T21:04:40.823Z,1.20
2022-10-01T21:07:27.882Z,1.42
2022-10-01T21:10:01.192Z,1.30
2022-10-01T21:12:37.817Z,0.98
2022-10-01T21:15:05.007Z,1.25
2022-10-01T21:17:53.646Z,1.52
2022-10-01T21:20:38.080Z,1.42
2022-10-01T21:23:18.691Z,2.37
2022-10-01T21:26:11.732Z,1.30
2022-10-01T21:29:02.947Z,1.60
2022-10-01T21:31:29.251Z,1.13
2022-10-01T21:34:02.312Z,1.60
2022-10-01T21:36:59.314Z,1.40
2022-10-01T21:39:31.335Z,1.35
2022-10-01T21:42:29.368Z,1.60
2022-10-01T21:45:02.412Z,2.00
2022-10-01T21:47:31.392Z,1.52
2022-10-01T21:50:20.397Z,1.47
2022-10-01T21:53:31.762Z,1.60
2022-10-01T21:56:16.084Z,2.22
2022-10-01T21:58:56.973Z,1.60
2022-10-01T22:01:41.012Z,1.55
2022-10-01T22:04:21.957Z,1.63
2022-10-01T22:06:55.754Z,1.70
2022-10-01T22:09:32.947Z,2.10
2022-10-01T22:12:02.322Z,2.20
2022-10-01T22:14:29.607Z,1.85
2022-10-01T22:17:01.273Z,1.90
2022-10-01T22:19:30.216Z,2.10
2022-10-01T22:22:21.678Z,2.22
2022-10-01T22:24:57.099Z,1.45
2022-10-01T22:27:33.054Z,2.15
2022-10-01T22:30:06.236Z,1.63
2022-10-01T22:33:05.322Z,2.15
2022-10-01T22:35:51.380Z,1.48
2022-10-01T22:38:23.806Z,1.85
2022-10-01T22:41:02.035Z,2.00
2022-10-01T22:43:28.737Z,1.87
2022-10-01T22:45:57.799Z,1.75
2022-10-01T22:48:38.642Z,1.80
2022-10-01T22:51:14.780Z,2.00
2022-10-01T22:54:04.420Z,1.77
2022-10-01T22:56:43.226Z,2.40
2022-10-01T22:59:35.335Z,1.13
2022-10-01T23:02:23.487Z,1.58
2022-10-01T23:04:55.176Z,1.15
2022-10-01T23:07:53.510Z,1.38
2022-10-01T23:10:31.264Z,1.20
2022-10-01T23:13:18.723Z,1.30
2022-10-01T23:16:19.121Z,2.03
2022-10-01T23:19:00.522Z,1.42
2022-10-01T23:22:05.276Z,1.83
2022-10-01T23:25:05.203Z,1.47
2022-10-01T23:28:09.302Z,1.23
2022-10-01T23:31:06.770Z,1.58
2022-10-01T23:33:33.011Z,1.60
2022-10-01T23:36:18.160Z,1.27
2022-10-01T23:39:18.083Z,1.63
2022-10-01T23:41:59.131Z,1.20
2022-10-01T23:44:51.740Z,1.50
2022-10-01T23:47:26.963Z,1.27
2022-10-01T23:49:55.721Z,1.48
2022-10-01T23:52:31.889Z,0.83
2022-10-01T23:55:23.546Z,0.95
2022-10-01T23:57:54.173Z,0.90
